Time;durP1;ratioP1;P1;durP2;ratioP2;P2;SDS_P1;SDS_P2;PMS_P1;PMS_P2;Temp;Humidity;BMP_temperature;BMP_pressure;BME280_temperature;BME280_humidity;BME280_pressure;Samples;Min_cycle;Max_cycle;Signal;HPM_P1;HPM_P2
2022/09/27 00:02:18;;;;;;;0.45;0.43;;;;;;;12.32;100.00;98648.97;7392956;19;20014;-84
2022/09/27 00:04:44;;;;;;;2.03;0.63;;;;;;;12.26;100.00;98643.41;7394793;19;20011;-86
2022/09/27 00:07:10;;;;;;;0.60;0.60;;;;;;;12.23;100.00;98652.06;7391766;19;20013;-85
2022/09/27 00:09:36;;;;;;;0.60;0.60;;;;;;;12.18;100.00;98643.19;7392846;19;20010;-86
2022/09/27 00:12:03;;;;;;;8.15;0.90;;;;;;;12.20;100.00;98637.09;7393841;19;20077;-86
2022/09/27 00:14:29;;;;;;;0.20;0.20;;;;;;;12.22;100.00;98639.34;7392523;19;20456;-85
2022/09/27 00:16:55;;;;;;;0.38;0.38;;;;;;;12.22;100.00;98639.34;7396900;19;20007;-85
2022/09/27 00:19:22;;;;;;;0.98;0.98;;;;;;;12.48;100.00;98631.31;7393360;19;20007;-85
2022/09/27 00:21:49;;;;;;;2.38;0.45;;;;;;;12.35;100.00;98639.53;7393395;19;20047;-85
2022/09/27 00:24:18;;;;;;;0.40;0.40;;;;;;;12.41;100.00;98634.69;7395623;19;20023;-86
2022/09/27 00:26:46;;;;;;;0.43;0.43;;;;;;;12.32;100.00;98632.22;7392295;19;20028;-86
2022/09/27 00:29:13;;;;;;;0.50;0.50;;;;;;;12.53;100.00;98624.97;7393989;19;20014;-86
2022/09/27 00:31:40;;;;;;;0.35;0.35;;;;;;;12.56;100.00;98632.31;7390502;19;20044;-85
2022/09/27 00:34:07;;;;;;;0.45;0.45;;;;;;;12.55;100.00;98630.78;7392482;19;20022;-86
2022/09/27 00:36:33;;;;;;;0.22;0.22;;;;;;;12.30;100.00;98623.59;7395841;19;20014;-86
2022/09/27 00:39:00;;;;;;;0.15;0.10;;;;;;;12.38;100.00;98628.09;7392440;19;20017;-85
2022/09/27 00:41:35;;;;;;;0.73;0.73;;;;;;;12.36;100.00;98618.72;7389573;19;20078;-86
2022/09/27 00:44:32;;;;;;;2.92;0.60;;;;;;;12.24;100.00;98625.63;7391896;19;20010;-85
2022/09/27 00:47:23;;;;;;;0.28;0.28;;;;;;;12.23;100.00;98629.72;7396212;19;20018;-86
2022/09/27 00:50:10;;;;;;;0.63;0.50;;;;;;;12.23;100.00;98619.31;7391815;19;20078;-85
2022/09/27 00:52:58;;;;;;;0.20;0.20;;;;;;;12.44;100.00;98614.09;7391252;19;20014;-86
2022/09/27 00:55:29;;;;;;;0.65;0.50;;;;;;;12.71;100.00;98625.06;7395861;19;20077;-86
2022/09/27 00:57:56;;;;;;;0.38;0.38;;;;;;;12.56;100.00;98621.13;7393470;19;20018;-86
2022/09/27 01:00:22;;;;;;;0.30;0.30;;;;;;;12.65;100.00;98618.00;7389892;19;20366;-86
2022/09/27 01:02:52;;;;;;;0.20;0.20;;;;;;;12.68;100.00;98616.97;7391580;19;20013;-86
2022/09/27 01:05:22;;;;;;;0.10;0.10;;;;;;;12.65;100.00;98618.75;7395975;19;20070;-86
2022/09/27 01:07:48;;;;;;;0.22;0.22;;;;;;;12.80;100.00;98621.94;7391963;19;20390;-84
2022/09/27 01:10:15;;;;;;;1.55;0.40;;;;;;;12.74;100.00;98614.88;7389200;19;20022;-85
2022/09/27 01:13:28;;;;;;;0.30;0.30;;;;;;;12.62;100.00;98607.88;7396606;19;20018;-85
2022/09/27 01:16:13;;;;;;;0.22;0.22;;;;;;;12.44;100.00;98612.06;7398554;19;20473;-86
2022/09/27 01:19:07;;;;;;;0.17;0.17;;;;;;;12.41;100.00;98609.56;7399423;19;20129;-86
2022/09/27 01:21:42;;;;;;;0.40;0.40;;;;;;;12.51;100.00;98616.34;7397700;19;20018;-86
2022/09/27 01:24:30;;;;;;;4.22;0.82;;;;;;;12.62;100.00;98605.09;7398729;19;20034;-85
2022/09/27 01:27:28;;;;;;;0.30;0.30;;;;;;;12.26;100.00;98603.56;7400212;19;20018;-86
2022/09/27 01:29:57;;;;;;;0.50;0.50;;;;;;;12.15;100.00;98607.16;7395724;19;20029;-87
2022/09/27 01:32:23;;;;;;;5.05;0.50;;;;;;;12.00;100.00;98603.97;7402000;19;20010;-86
2022/09/27 01:35:14;;;;;;;0.40;0.40;;;;;;;11.79;100.00;98603.56;7399397;19;20461;-87
2022/09/27 01:38:24;;;;;;;0.50;0.50;;;;;;;11.67;100.00;98599.31;7398119;19;20037;-86
2022/09/27 01:41:11;;;;;;;0.13;0.13;;;;;;;11.74;100.00;98598.75;7395420;19;20031;-87
2022/09/27 01:43:55;;;;;;;2.45;0.82;;;;;;;11.86;100.00;98599.47;7398371;19;20493;-87
2022/09/27 01:46:37;;;;;;;0.68;0.68;;;;;;;12.03;100.00;98586.97;7402062;19;20639;-86
2022/09/27 01:49:16;;;;;;;0.88;0.88;;;;;;;11.94;100.00;98595.63;7396933;19;20018;-87
2022/09/27 01:51:56;;;;;;;0.52;0.52;;;;;;;12.01;100.00;98592.31;7398051;19;20007;-86
2022/09/27 01:54:33;;;;;;;7.55;0.63;;;;;;;12.13;100.00;98588.16;7398689;19;20014;-87
2022/09/27 01:57:24;;;;;;;1.05;1.05;;;;;;;12.08;100.00;98586.16;7398543;19;20090;-87
2022/09/27 02:00:23;;;;;;;10.23;0.73;;;;;;;12.15;100.00;98593.22;7396880;19;20018;-87
2022/09/27 02:03:03;;;;;;;0.52;0.10;;;;;;;12.13;100.00;98581.81;7389102;19;20015;-87
2022/09/27 02:05:39;;;;;;;0.57;0.45;;;;;;;12.10;100.00;98592.00;7399899;19;20010;-89
2022/09/27 02:08:35;;;;;;;0.40;0.40;;;;;;;11.93;100.00;98571.78;7394638;19;20460;-86
2022/09/27 02:11:10;;;;;;;0.30;0.30;;;;;;;11.99;100.00;98568.97;7395486;19;20038;-87
2022/09/27 02:13:46;;;;;;;0.25;0.25;;;;;;;11.90;100.00;98563.69;7397486;19;20019;-86
2022/09/27 02:16:40;;;;;;;0.20;0.20;;;;;;;11.83;100.00;98570.59;7402243;19;20010;-86
2022/09/27 02:19:14;;;;;;;0.22;0.22;;;;;;;11.64;100.00;98566.84;7396191;19;20438;-84
2022/09/27 02:22:13;;;;;;;0.77;0.77;;;;;;;11.43;100.00;98563.63;7392596;19;20022;-85
2022/09/27 02:24:47;;;;;;;0.25;0.25;;;;;;;11.38;100.00;98561.63;7393206;19;20487;-84
2022/09/27 02:27:20;;;;;;;1.70;0.82;;;;;;;11.32;100.00;98552.53;7392733;19;20010;-84
2022/09/27 02:29:53;;;;;;;0.17;0.17;;;;;;;11.34;100.00;98554.81;7394960;19;20034;-85
2022/09/27 02:32:20;;;;;;;0.77;0.38;;;;;;;11.51;100.00;98551.94;7392531;19;20021;-84
2022/09/27 02:34:47;;;;;;;0.35;0.35;;;;;;;11.50;100.00;98534.44;7393680;19;20014;-84
2022/09/27 02:37:13;;;;;;;0.30;0.30;;;;;;;11.46;100.00;98533.97;7391994;19;20019;-84
2022/09/27 02:39:40;;;;;;;0.30;0.30;;;;;;;11.44;100.00;98537.28;7389318;19;20018;-84
2022/09/27 02:42:07;;;;;;;0.15;0.15;;;;;;;11.34;100.00;98529.72;7389574;19;20029;-84
2022/09/27 02:44:35;;;;;;;0.22;0.22;;;;;;;11.51;100.00;98524.06;7393285;19;20015;-84
2022/09/27 02:47:29;;;;;;;1.60;0.47;;;;;;;11.57;100.00;98536.72;7394954;19;20018;-84
2022/09/27 02:50:08;;;;;;;0.30;0.20;;;;;;;11.48;100.00;98525.84;7392258;19;20513;-85
2022/09/27 02:53:18;;;;;;;3.13;0.55;;;;;;;11.63;100.00;98517.91;7395975;19;20042;-84
2022/09/27 02:56:02;;;;;;;0.40;0.40;;;;;;;11.79;100.00;98505.94;7393893;19;20021;-84
2022/09/27 02:58:51;;;;;;;0.30;0.30;;;;;;;11.79;100.00;98507.97;7392246;19;20468;-84
2022/09/27 03:02:07;;;;;;;0.40;0.40;;;;;;;11.71;100.00;98496.63;7390246;19;20011;-84
2022/09/27 03:04:54;;;;;;;0.20;0.20;;;;;;;11.64;100.00;98502.72;7390700;19;20037;-83
2022/09/27 03:07:21;;;;;;;0.20;0.20;;;;;;;11.70;100.00;98492.31;7389879;19;20018;-84
2022/09/27 03:09:50;;;;;;;0.20;0.20;;;;;;;11.77;100.00;98483.41;7389218;19;20026;-84
2022/09/27 03:12:24;;;;;;;0.28;0.28;;;;;;;11.78;100.00;98490.47;7391657;19;20503;-83
2022/09/27 03:14:53;;;;;;;0.20;0.20;;;;;;;11.85;100.00;98489.94;7393904;19;20003;-84
2022/09/27 03:17:38;;;;;;;1.20;0.35;;;;;;;11.90;100.00;98486.34;7392135;19;20018;-84
2022/09/27 03:20:19;;;;;;;0.40;0.40;;;;;;;12.06;100.00;98488.25;7388066;19;20029;-83
2022/09/27 03:22:53;;;;;;;0.63;0.63;;;;;;;12.05;100.00;98489.53;7390456;19;20006;-84
2022/09/27 03:25:20;;;;;;;0.40;0.40;;;;;;;12.23;100.00;98487.38;7392258;19;20457;-84
2022/09/27 03:27:47;;;;;;;0.30;0.30;;;;;;;12.26;100.00;98489.88;7391178;19;20018;-83
2022/09/27 03:30:13;;;;;;;1.58;0.30;;;;;;;12.19;100.00;98482.81;7389938;19;20498;-84
2022/09/27 03:32:44;;;;;;;0.30;0.30;;;;;;;12.11;100.00;98489.47;7390872;19;20022;-85
2022/09/27 03:35:29;;;;;;;0.73;0.55;;;;;;;12.25;100.00;98474.41;7393693;19;20018;-85
2022/09/27 03:37:55;;;;;;;0.10;0.10;;;;;;;12.38;100.00;98477.34;7394485;19;20074;-85
2022/09/27 03:40:21;;;;;;;0.30;0.30;;;;;;;12.50;100.00;98473.16;7392632;19;20085;-86
2022/09/27 03:42:49;;;;;;;0.20;0.20;;;;;;;12.43;100.00;98461.81;7392618;19;20471;-86
2022/09/27 03:45:17;;;;;;;1.08;0.32;;;;;;;12.18;100.00;98464.56;7392211;19;20520;-85
2022/09/27 03:47:43;;;;;;;0.13;0.13;;;;;;;12.33;100.00;98466.22;7389758;19;20010;-85
2022/09/27 03:50:11;;;;;;;0.10;0.10;;;;;;;12.38;100.00;98459.84;7391086;19;20022;-83
2022/09/27 03:52:37;;;;;;;0.40;0.40;;;;;;;12.39;100.00;98464.88;7388620;19;20028;-84
2022/09/27 03:55:05;;;;;;;0.47;0.47;;;;;;;12.39;100.00;98461.38;7391693;19;20025;-85
2022/09/27 03:57:31;;;;;;;0.40;0.40;;;;;;;12.50;100.00;98461.22;7390502;19;20018;-84
2022/09/27 03:59:58;;;;;;;0.47;0.47;;;;;;;12.59;100.00;98452.50;7391660;19;20046;-84
2022/09/27 04:02:40;;;;;;;0.20;0.20;;;;;;;12.80;100.00;98445.16;7391812;19;20018;-85
2022/09/27 04:05:27;;;;;;;1.00;0.88;;;;;;;12.83;100.00;98444.13;7393124;19;20022;-84
2022/09/27 04:08:00;;;;;;;0.30;0.30;;;;;;;12.64;100.00;98444.09;7392549;19;20041;-84
2022/09/27 04:10:28;;;;;;;0.20;0.20;;;;;;;12.52;100.00;98434.31;7389226;19;20014;-85
2022/09/27 04:12:55;;;;;;;0.32;0.32;;;;;;;12.61;100.00;98433.97;7392479;19;20022;-84
2022/09/27 04:15:23;;;;;;;0.30;0.30;;;;;;;12.58;100.00;98429.41;7392563;19;20497;-84
2022/09/27 04:17:49;;;;;;;2.40;0.60;;;;;;;12.65;100.00;98430.88;7390339;19;20761;-85
2022/09/27 04:20:36;;;;;;;0.10;0.10;;;;;;;12.91;100.00;98422.69;7390820;19;20027;-86
2022/09/27 04:23:13;;;;;;;0.20;0.20;;;;;;;12.88;100.00;98418.19;7392349;19;20011;-86
2022/09/27 04:25:46;;;;;;;0.45;0.45;;;;;;;13.18;100.00;98421.63;7396038;19;20524;-86
2022/09/27 04:28:30;;;;;;;1.98;0.28;;;;;;;13.23;100.00;98429.19;7394819;19;20057;-86
2022/09/27 04:30:57;;;;;;;0.20;0.20;;;;;;;13.22;100.00;98429.72;7392153;19;20014;-86
2022/09/27 04:33:46;;;;;;;0.13;0.13;;;;;;;13.28;100.00;98417.19;7391945;19;20014;-87
2022/09/27 04:36:26;;;;;;;0.43;0.43;;;;;;;13.52;100.00;98433.88;7395412;19;20013;-87
2022/09/27 04:39:13;;;;;;;0.63;0.63;;;;;;;13.74;100.00;98446.03;7394401;19;20015;-89
2022/09/27 04:41:42;;;;;;;12.40;0.43;;;;;;;13.85;100.00;98429.06;7394006;19;20094;-90
2022/09/27 04:44:08;;;;;;;0.10;0.10;;;;;;;13.95;100.00;98421.78;7394557;19;20088;-89
2022/09/27 04:46:34;;;;;;;0.65;0.57;;;;;;;13.91;100.00;98418.53;7403244;19;20098;-90
2022/09/27 04:49:01;;;;;;;4.15;0.70;;;;;;;13.93;100.00;98418.75;7398068;19;20860;-90
2022/09/27 04:51:29;;;;;;;0.20;0.20;;;;;;;14.04;100.00;98410.19;7399318;19;20007;-89
2022/09/27 04:53:57;;;;;;;0.20;0.20;;;;;;;14.24;100.00;98404.00;7399471;19;20018;-88
2022/09/27 04:56:27;;;;;;;;;;;;;;;14.25;100.00;98408.31;7404214;19;20014;-88
2022/09/27 04:58:53;;;;;;;0.28;0.28;;;;;;;14.31;100.00;98392.94;7400425;19;19931;-88
2022/09/27 05:01:19;;;;;;;0.20;0.20;;;;;;;14.37;100.00;98401.25;7396956;19;20050;-89
2022/09/27 05:04:06;;;;;;;0.10;0.10;;;;;;;14.26;100.00;98396.56;7400865;19;20010;-88
2022/09/27 05:06:35;;;;;;;0.20;0.20;;;;;;;14.22;100.00;98401.75;7400318;19;20007;-91
2022/09/27 05:09:07;;;;;;;0.15;0.15;;;;;;;14.26;100.00;98407.00;7400147;19;20077;-92
2022/09/27 05:11:44;;;;;;;0.15;0.15;;;;;;;14.46;100.00;98409.22;7398162;19;20025;-90
2022/09/27 05:14:22;;;;;;;0.30;0.30;;;;;;;14.42;100.00;98411.59;7394442;19;20346;-88
2022/09/27 05:17:22;;;;;;;0.63;0.63;;;;;;;14.58;100.00;98407.72;7396137;19;20011;-90
2022/09/27 05:20:26;;;;;;;1.08;0.88;;;;;;;14.36;100.00;98394.13;7395739;19;20014;-89
2022/09/27 05:23:09;;;;;;;3.72;0.40;;;;;;;14.39;100.00;98393.06;7397821;19;20078;-90
2022/09/27 05:25:35;;;;;;;0.30;0.30;;;;;;;14.19;100.00;98391.59;7401154;19;20019;-89
2022/09/27 05:28:02;;;;;;;0.30;0.30;;;;;;;14.10;100.00;98396.84;7396940;19;20010;-89
2022/09/27 05:30:28;;;;;;;2.75;0.57;;;;;;;14.00;100.00;98392.94;7399726;19;20050;-89
2022/09/27 05:33:04;;;;;;;1.33;0.50;;;;;;;14.02;100.00;98393.16;7398942;19;20682;-89
2022/09/27 05:36:01;;;;;;;0.75;0.50;;;;;;;14.02;100.00;98404.38;7399213;19;20361;-88
2022/09/27 05:38:29;;;;;;;1.50;0.70;;;;;;;13.87;100.00;98392.91;7398980;19;20015;-88
2022/09/27 05:40:58;;;;;;;7.75;0.60;;;;;;;14.00;100.00;98390.16;7396521;19;20015;-88
2022/09/27 05:43:25;;;;;;;0.20;0.20;;;;;;;14.12;100.00;98391.50;7398519;19;20010;-86
2022/09/27 05:45:51;;;;;;;0.40;0.40;;;;;;;14.06;100.00;98388.00;7397721;19;20021;-85
2022/09/27 05:48:19;;;;;;;0.40;0.40;;;;;;;14.07;100.00;98390.28;7393640;19;20018;-85
2022/09/27 05:50:53;;;;;;;0.28;0.28;;;;;;;14.23;100.00;98394.06;7395255;19;20019;-84
2022/09/27 05:53:19;;;;;;;0.10;0.10;;;;;;;14.30;100.00;98390.66;7394835;19;20011;-86
2022/09/27 05:55:48;;;;;;;0.50;0.50;;;;;;;14.31;100.00;98392.19;7399403;19;20018;-86
2022/09/27 05:58:15;;;;;;;3.22;0.88;;;;;;;14.55;100.00;98399.66;7396144;19;20459;-87
2022/09/27 06:00:50;;;;;;;0.50;0.45;;;;;;;14.40;100.00;98397.38;7397199;19;20018;-87
2022/09/27 06:03:51;;;;;;;0.22;0.22;;;;;;;14.65;100.00;98393.06;7397914;19;20010;-88
2022/09/27 06:06:36;;;;;;;0.20;0.20;;;;;;;14.72;100.00;98378.41;7402740;19;20019;-88
2022/09/27 06:09:03;;;;;;;0.20;0.20;;;;;;;14.72;100.00;98381.22;7396200;19;20070;-88
2022/09/27 06:11:30;;;;;;;1.40;0.70;;;;;;;14.77;100.00;98377.53;7395720;19;20490;-83
2022/09/27 06:13:56;;;;;;;0.98;0.45;;;;;;;14.85;100.00;98372.81;7396873;19;20025;-86
2022/09/27 06:16:24;;;;;;;0.63;0.60;;;;;;;14.96;100.00;98366.22;7401108;19;20350;-87
2022/09/27 06:18:50;;;;;;;0.43;0.43;;;;;;;14.78;100.00;98370.66;7398024;19;20025;-88
2022/09/27 06:21:17;;;;;;;0.20;0.20;;;;;;;14.71;100.00;98373.34;7395268;19;20007;-88
2022/09/27 06:23:50;;;;;;;0.10;0.10;;;;;;;14.84;100.00;98368.47;7400876;19;20010;-87
2022/09/27 06:26:26;;;;;;;0.35;0.20;;;;;;;14.78;100.00;98370.66;7400533;19;20461;-87
2022/09/27 06:29:04;;;;;;;0.30;0.30;;;;;;;14.74;100.00;98373.03;7394180;19;20017;-88
2022/09/27 06:31:31;;;;;;;0.38;0.38;;;;;;;15.02;100.00;98381.63;7393340;19;20013;-89
2022/09/27 06:34:12;;;;;;;0.30;0.30;;;;;;;14.79;100.00;98380.56;7399284;19;20022;-90
2022/09/27 06:36:39;;;;;;;0.80;0.77;;;;;;;14.81;100.00;98389.19;7399239;19;20010;-93
2022/09/27 06:39:05;;;;;;;1.27;0.45;;;;;;;14.82;100.00;98373.88;7399598;19;20038;-95
2022/09/27 06:41:40;;;;;;;1.90;0.88;;;;;;;14.82;100.00;98368.28;7397105;19;20472;-93
2022/09/27 06:44:29;;;;;;;0.68;0.50;;;;;;;14.96;100.00;98355.75;7397046;19;20464;-92
2022/09/27 06:47:15;;;;;;;0.85;0.55;;;;;;;15.14;100.00;98359.69;7401481;19;20014;-91
2022/09/27 06:50:02;;;;;;;0.40;0.40;;;;;;;15.20;100.00;98363.88;7396094;19;20023;-92
2022/09/27 06:52:28;;;;;;;0.65;0.47;;;;;;;14.91;100.00;98358.66;7396546;19;20358;-90
2022/09/27 06:54:54;;;;;;;0.63;0.47;;;;;;;15.08;100.00;98357.03;7397609;19;20074;-91
2022/09/27 07:00:25;;;;;;;0.50;0.50;;;;;;;14.93;100.00;98351.22;7398425;19;20041;-90
2022/09/27 07:03:10;;;;;;;0.20;0.20;;;;;;;14.96;100.00;98350.16;7399990;19;20022;-90
2022/09/27 07:06:02;;;;;;;0.40;0.40;;;;;;;15.06;100.00;98337.19;7394605;19;20011;-89
2022/09/27 07:08:43;;;;;;;0.20;0.20;;;;;;;15.10;100.00;98340.41;7394046;19;20536;-89
2022/09/27 07:11:10;;;;;;;0.30;0.30;;;;;;;15.03;100.00;98332.66;7393272;19;20015;-89
2022/09/27 07:13:41;;;;;;;0.47;0.38;;;;;;;15.24;100.00;98332.72;7395507;19;20082;-89
2022/09/27 07:16:10;;;;;;;;;;;;;;;15.32;100.00;98330.75;7399483;19;20036;-89
2022/09/27 07:18:36;;;;;;;0.40;0.40;;;;;;;15.13;100.00;98330.91;7395682;19;19923;-89
2022/09/27 07:21:02;;;;;;;0.30;0.30;;;;;;;15.14;100.00;98315.59;7393891;19;20042;-89
2022/09/27 07:23:30;;;;;;;0.50;0.50;;;;;;;15.06;100.00;98319.59;7393750;19;20011;-89
2022/09/27 07:26:03;;;;;;;0.43;0.43;;;;;;;15.13;100.00;98322.50;7398276;19;20034;-89
2022/09/27 07:28:30;;;;;;;1.35;0.45;;;;;;;15.25;100.00;98330.66;7396902;19;20098;-89
2022/09/27 07:30:57;;;;;;;0.30;0.30;;;;;;;15.12;100.00;98335.00;7397859;19;20014;-88
2022/09/27 07:33:24;;;;;;;4.03;1.13;;;;;;;15.26;100.00;98332.16;7395843;19;20023;-93
2022/09/27 07:35:50;;;;;;;0.10;0.10;;;;;;;15.34;100.00;98341.41;7397570;19;20441;-94
2022/09/27 07:38:17;;;;;;;0.20;0.20;;;;;;;15.40;100.00;98347.66;7395017;19;20028;-92
2022/09/27 07:40:43;;;;;;;0.30;0.30;;;;;;;15.39;100.00;98346.91;7392712;19;20011;-94
2022/09/27 07:43:09;;;;;;;7.68;0.65;;;;;;;15.18;100.00;98346.84;7394996;19;20011;-95
2022/09/27 07:45:35;;;;;;;0.20;0.20;;;;;;;15.25;100.00;98330.66;7397561;19;20010;-91
2022/09/27 07:48:11;;;;;;;2.20;0.73;;;;;;;15.45;100.00;98318.72;7395888;19;20022;-90
2022/09/27 07:51:06;;;;;;;0.15;0.15;;;;;;;15.40;100.00;98314.00;7385695;19;20014;-86
2022/09/27 07:53:51;;;;;;;0.40;0.40;;;;;;;15.23;100.00;98316.41;7391990;19;20330;-86
2022/09/27 07:56:44;;;;;;;0.20;0.20;;;;;;;15.33;100.00;98323.09;7391674;19;20074;-85
2022/09/27 07:59:12;;;;;;;0.25;0.20;;;;;;;15.93;100.00;98309.63;7392358;19;20031;-87
2022/09/27 08:01:38;;;;;;;0.20;0.20;;;;;;;16.00;100.00;98317.38;7391669;19;20460;-86
2022/09/27 08:04:04;;;;;;;0.25;0.17;;;;;;;15.84;100.00;98319.28;7397479;19;20011;-86
2022/09/27 08:06:31;;;;;;;0.10;0.10;;;;;;;15.96;100.00;98336.59;7397480;19;20014;-86
2022/09/27 08:08:58;;;;;;;0.43;0.20;;;;;;;15.94;100.00;98314.69;7390995;19;20591;-88
2022/09/27 08:11:26;;;;;;;0.35;0.35;;;;;;;16.05;100.00;98322.06;7391377;19;20011;-88
2022/09/27 08:13:54;;;;;;;0.40;0.40;;;;;;;16.33;100.00;98319.28;7393329;19;20087;-88
2022/09/27 08:16:24;;;;;;;0.38;0.38;;;;;;;16.36;100.00;98321.00;7398111;19;20014;-87
2022/09/27 08:19:09;;;;;;;3.30;1.00;;;;;;;16.45;100.00;98314.88;7393548;19;20015;-88
2022/09/27 08:21:44;;;;;;;0.35;0.32;;;;;;;16.74;100.00;98321.22;7398401;19;20041;-88
2022/09/27 08:24:13;;;;;;;0.65;0.65;;;;;;;16.59;100.00;98321.91;7401412;19;20013;-87
2022/09/27 08:26:59;;;;;;;2.00;1.27;;;;;;;16.47;100.00;98320.69;7403881;19;20082;-86
2022/09/27 08:29:44;;;;;;;0.57;0.57;;;;;;;16.29;100.00;98321.69;7399134;19;20037;-87
2022/09/27 08:32:11;;;;;;;3.60;0.30;;;;;;;16.62;100.00;98323.63;7404648;19;20014;-87
2022/09/27 08:34:37;;;;;;;2.97;1.05;;;;;;;16.95;100.00;98326.75;7400597;19;20378;-86
2022/09/27 08:37:04;;;;;;;0.88;0.88;;;;;;;17.04;100.00;98324.19;7399719;19;20010;-86
2022/09/27 08:39:31;;;;;;;0.30;0.30;;;;;;;17.31;100.00;98319.00;7398481;19;20010;-87
2022/09/27 08:42:27;;;;;;;1.10;0.40;;;;;;;17.16;100.00;98324.59;7400896;19;20482;-87
2022/09/27 08:45:28;;;;;;;3.90;1.33;;;;;;;17.27;100.00;98335.50;7401829;19;20006;-85
2022/09/27 08:47:59;;;;;;;1.80;0.98;;;;;;;17.28;100.00;98337.00;7394178;19;20042;-87
2022/09/27 08:50:34;;;;;;;0.40;0.40;;;;;;;17.50;100.00;98327.88;7396585;19;20495;-86
2022/09/27 08:53:13;;;;;;;0.30;0.30;;;;;;;17.43;100.00;98331.44;7398205;19;20594;-86
2022/09/27 08:55:46;;;;;;;0.68;0.30;;;;;;;17.47;100.00;98339.50;7401343;19;20010;-86
2022/09/27 08:58:31;;;;;;;0.20;0.20;;;;;;;17.70;100.00;98321.34;7398698;19;20017;-87
2022/09/27 09:01:10;;;;;;;0.68;0.68;;;;;;;17.54;100.00;98327.53;7397717;19;20048;-88
2022/09/27 09:03:48;;;;;;;0.20;0.20;;;;;;;17.67;100.00;98321.75;7399687;19;20014;-86
2022/09/27 09:06:40;;;;;;;0.50;0.50;;;;;;;17.69;100.00;98331.13;7401126;19;20022;-87
2022/09/27 09:09:12;;;;;;;8.25;0.30;;;;;;;17.82;100.00;98319.66;7395340;19;20022;-87
2022/09/27 09:15:12;;;;;;;0.30;0.30;;;;;;;17.93;100.00;98308.03;7400285;19;20018;-87
2022/09/27 09:18:03;;;;;;;1.73;0.80;;;;;;;17.65;100.00;98321.53;7397884;19;20031;-87
2022/09/27 09:21:12;;;;;;;1.98;0.28;;;;;;;17.55;100.00;98320.56;7393636;19;20015;-85
2022/09/27 09:23:45;;;;;;;5.75;0.47;;;;;;;16.08;100.00;98326.59;7392902;19;20078;-84
2022/09/27 09:26:31;;;;;;;0.38;0.38;;;;;;;16.76;100.00;98326.31;7396117;19;20036;-83
2022/09/27 09:29:15;;;;;;;1.27;0.35;;;;;;;16.91;100.00;98326.38;7387919;19;20034;-82
2022/09/27 09:32:00;;;;;;;0.20;0.10;;;;;;;16.90;100.00;98313.59;7387282;19;20385;-82
2022/09/27 09:34:41;;;;;;;0.10;0.10;;;;;;;16.85;100.00;98315.28;7388966;19;20021;-82
2022/09/27 09:37:17;;;;;;;0.17;0.17;;;;;;;16.85;100.00;98322.97;7390244;19;20018;-82
2022/09/27 09:39:51;;;;;;;0.20;0.20;;;;;;;17.16;100.00;98314.09;7389187;19;20023;-82
2022/09/27 09:42:25;;;;;;;3.50;0.50;;;;;;;17.09;100.00;98314.81;7390101;19;20014;-82
2022/09/27 09:44:58;;;;;;;1.20;0.35;;;;;;;17.08;100.00;98307.69;7390836;19;20021;-80
2022/09/27 09:47:32;;;;;;;2.60;0.32;;;;;;;17.11;100.00;98305.81;7388081;19;20575;-81
2022/09/27 09:50:05;;;;;;;3.80;0.52;;;;;;;17.17;100.00;98300.78;7390298;19;20457;-81
2022/09/27 09:52:43;;;;;;;0.35;0.35;;;;;;;17.08;100.00;98309.75;7385836;19;20017;-80
2022/09/27 09:55:22;;;;;;;0.47;0.30;;;;;;;17.15;100.00;98306.94;7389234;19;20014;-81
2022/09/27 09:57:48;;;;;;;0.30;0.15;;;;;;;16.94;100.00;98309.13;7388734;19;20031;-81
2022/09/27 10:00:20;;;;;;;1.95;0.57;;;;;;;17.17;100.00;98315.56;7387218;19;20102;-81
2022/09/27 10:02:53;;;;;;;9.13;0.68;;;;;;;17.09;100.00;98311.22;7388026;19;20063;-81
2022/09/27 10:05:22;;;;;;;0.63;0.57;;;;;;;17.28;100.00;98308.88;7390892;19;20010;-81
2022/09/27 10:07:59;;;;;;;3.35;0.80;;;;;;;17.41;100.00;98300.28;7388219;19;20050;-81
2022/09/27 10:10:26;;;;;;;0.38;0.38;;;;;;;17.45;100.00;98300.66;7387142;19;20022;-81
2022/09/27 10:12:52;;;;;;;11.05;1.42;;;;;;;17.51;100.00;98303.31;7387946;19;20097;-82
2022/09/27 10:15:28;;;;;;;2.15;0.68;;;;;;;17.67;100.00;98299.94;7385488;19;20015;-82
2022/09/27 10:17:58;;;;;;;10.20;1.23;;;;;;;17.59;100.00;98290.75;7384011;19;20046;-82
2022/09/27 10:20:41;;;;;;;1.25;1.13;;;;;;;17.59;100.00;98284.34;7384444;19;20018;-82
2022/09/27 10:23:19;;;;;;;0.10;0.10;;;;;;;17.75;100.00;98283.81;7384983;19;20533;-83
2022/09/27 10:26:18;;;;;;;0.55;0.30;;;;;;;17.75;100.00;98269.75;7387347;19;20015;-82
2022/09/27 10:28:50;;;;;;;0.22;0.13;;;;;;;17.77;100.00;98272.75;7390259;19;20394;-82
2022/09/27 10:31:22;;;;;;;9.52;1.27;;;;;;;17.88;100.00;98280.06;7386206;19;20018;-82
2022/09/27 10:34:05;;;;;;;2.17;0.30;;;;;;;17.95;100.00;98273.69;7385936;19;20085;-82
2022/09/27 10:36:45;;;;;;;7.70;1.17;;;;;;;18.04;100.00;98271.03;7386801;19;20018;-82
2022/09/27 10:39:21;;;;;;;9.55;1.20;;;;;;;17.99;100.00;98262.78;7387466;19;20022;-81
2022/09/27 10:41:47;;;;;;;7.68;0.32;;;;;;;17.91;100.00;98262.03;7387747;19;20082;-82
2022/09/27 10:44:39;;;;;;;0.38;0.38;;;;;;;18.38;100.00;98247.31;7388060;19;20006;-81
2022/09/27 10:47:21;;;;;;;0.25;0.25;;;;;;;18.50;100.00;98254.03;7391739;19;20011;-82
2022/09/27 10:50:06;;;;;;;0.45;0.45;;;;;;;18.48;100.00;98257.44;7389314;19;20039;-82
2022/09/27 10:52:45;;;;;;;2.80;0.93;;;;;;;18.38;100.00;98267.78;7386204;19;20034;-82
2022/09/27 10:55:35;;;;;;;2.40;0.65;;;;;;;18.12;100.00;98288.69;7388719;19;20022;-84
2022/09/27 10:58:03;;;;;;;0.68;0.28;;;;;;;17.97;100.00;98285.88;7391943;19;20018;-85
2022/09/27 11:00:35;;;;;;;0.40;0.32;;;;;;;17.67;100.00;98282.31;7398937;19;20018;-92
2022/09/27 11:03:13;;;;;;;5.63;0.85;;;;;;;17.66;100.00;98270.28;7396182;19;20003;-93
2022/09/27 11:05:39;;;;;;;1.40;0.98;;;;;;;17.59;100.00;98273.84;7398152;19;20054;-89
2022/09/27 11:08:18;;;;;;;1.65;0.28;;;;;;;17.64;100.00;98278.56;7394197;19;20015;-85
2022/09/27 11:11:05;;;;;;;2.38;0.10;;;;;;;17.45;100.00;98273.25;7394251;19;20026;-85
2022/09/27 11:13:34;;;;;;;1.23;0.70;;;;;;;17.34;100.00;98284.13;7393604;19;20026;-84
2022/09/27 11:16:27;;;;;;;2.85;0.30;;;;;;;17.67;100.00;98280.22;7389420;19;20014;-83
2022/09/27 11:19:00;;;;;;;0.55;0.50;;;;;;;17.40;100.00;98265.00;7390213;19;20022;-82
2022/09/27 11:21:54;;;;;;;0.10;0.00;;;;;;;17.48;100.00;98265.00;7383777;19;20118;-82
2022/09/27 11:24:27;;;;;;;0.68;0.38;;;;;;;17.59;100.00;98265.41;7385503;19;20018;-82
2022/09/27 11:27:05;;;;;;;4.40;0.45;;;;;;;17.52;100.00;98266.16;7386019;19;20010;-81
2022/09/27 11:30:00;;;;;;;2.42;0.40;;;;;;;17.69;100.00;98260.75;7385660;19;20006;-81
2022/09/27 11:33:05;;;;;;;6.35;0.90;;;;;;;18.00;100.00;98242.50;7390807;19;20077;-82
2022/09/27 11:35:50;;;;;;;1.00;0.65;;;;;;;18.06;100.00;98251.50;7387527;19;20018;-82
2022/09/27 11:38:54;;;;;;;1.92;1.33;;;;;;;17.80;100.00;98240.63;7388228;19;20353;-82
2022/09/27 11:41:51;;;;;;;0.90;0.40;;;;;;;17.88;100.00;98252.66;7388062;19;20019;-84
2022/09/27 11:44:34;;;;;;;0.38;0.10;;;;;;;17.93;100.00;98248.88;7391874;19;20014;-87
2022/09/27 11:47:14;;;;;;;0.95;0.20;;;;;;;17.97;100.00;98251.31;7393028;19;20018;-86
2022/09/27 11:50:17;;;;;;;0.10;0.10;;;;;;;17.97;100.00;98249.28;7394554;19;20021;-88
2022/09/27 11:53:09;;;;;;;0.20;0.20;;;;;;;17.98;100.00;98250.75;7393377;19;20472;-89
2022/09/27 11:56:26;;;;;;;3.33;0.40;;;;;;;18.02;100.00;98253.94;7394769;19;20018;-88
2022/09/27 11:59:41;;;;;;;0.20;0.20;;;;;;;17.93;100.00;98254.50;7390198;19;20021;-87
2022/09/27 12:02:19;;;;;;;0.20;0.20;;;;;;;17.92;100.00;98261.47;7392729;19;20015;-87
2022/09/27 12:04:59;;;;;;;3.13;0.57;;;;;;;17.97;100.00;98268.22;7396429;19;20019;-87
2022/09/27 12:07:44;;;;;;;1.92;0.47;;;;;;;17.70;100.00;98265.03;7392266;19;20011;-87
2022/09/27 12:10:15;;;;;;;0.77;0.77;;;;;;;17.78;100.00;98265.78;7395532;19;20032;-87
2022/09/27 12:12:48;;;;;;;0.32;0.22;;;;;;;17.66;100.00;98263.91;7397597;19;20473;-90
2022/09/27 12:15:39;;;;;;;3.95;0.40;;;;;;;17.69;100.00;98263.56;7393191;19;20014;-84
2022/09/27 12:18:20;;;;;;;0.17;0.17;;;;;;;17.77;100.00;98258.66;7384349;19;20093;-81